Tonopah, Nevada Weather observations

Data are for observation ending at time listed.
 Day   Time    Ave.   Ave.  Ave.  Vector   Max.   Stn.    Total    Solar   Ave.  
  of    of     Air    Rel.  Wind   Wind    Wind   Baro.  Precip.   Rad.    Soil  
Year   Day     Temp.  Hum.  Speed  Dir.    Gust   Pres.                    Temp. 
2016   (PST)    F      %     mph   deg.    mph     mb.     in.     W/m2     F   
------------------------------------------------------------------------------
 242   18:50   76.0    11    2.3   140      3.4   816.3    0.00       0    87.4
 242   19:00   74.8    12    1.4   104      2.9   816.4    0.00       0    87.1
 242   19:10   74.4    12    2.7   128      3.3   816.3    0.00       0    86.8
 242   19:20   73.9    12    2.4   139      2.8   816.3    0.00       0    86.6
 242   19:30   72.9    12    2.5   122      3.2   816.4    0.00       0    86.3
 242   19:40   72.7    13    2.7   124      3.1   816.4    0.00       0    86.1
 242   19:50   72.6    13    2.9   131      3.5   816.5    0.00       0    85.8
 242   20:00   72.5    13    2.9   134      3.8   816.5    0.00       0    85.5
 242   20:10   72.9    12    3.2   153      3.9   816.5    0.00       0    85.3
 242   20:20   73.6    12    3.7   158      4.3   816.5    0.00       0    85.0
 242   20:30   73.2    12    3.3   144      4.4   816.5    0.00       0    84.8
 242   20:40   72.3    13    2.4   124      3.0   816.6    0.00       0    84.5
 242   20:50   71.4    13    2.7   127      3.5   816.6    0.00       0    84.3
 242   21:00   70.9    13    2.8   132      3.7   816.6    0.00       0    84.1
 242   21:10   71.0    13    3.0   144      3.6   816.6    0.00       0    83.9
 242   21:20   70.8    13    3.0   138      3.5   816.6    0.00       0    83.6
 242   21:30   70.3    13    3.1   148      5.0   816.6    0.00       0    83.4
 242   21:40   73.6    13    3.3   163      5.8   816.7    0.00       0    83.2
 242   21:50   75.1    13    3.0   185      8.0   816.7    0.00       0    83.0
 242   22:00   77.3    13    3.4   201      6.2   816.7    0.00       0    82.8
 242   22:10   77.9    13    5.0   202      8.2   816.7    0.00       0    82.6
 242   22:20   78.1    13    4.3   193      6.9   816.7    0.00       0    82.5
 242   22:30   76.5    13    4.7   141      7.6   816.7    0.00       0    82.3
 242   22:40   72.6    14    4.2   144      6.1   816.7    0.00       0    82.1
 242   22:50   70.0    16    3.3    94      4.9   816.7    0.00       0    81.9
 242   23:00   69.2    16    2.6   115      5.8   816.8    0.00       0    81.8
 242   23:10   70.2    15    4.8   154      6.1   816.8    0.00       0    81.6
 242   23:20   69.5    16    3.5   121      5.5   816.8    0.00       0    81.4
 242   23:30   69.2    16    3.6   140      5.3   816.8    0.00       0    81.3
 242   23:40   68.0    17    2.6   112      3.9   816.8    0.00       0    81.1
 242   23:50   67.1    18    3.2    83      6.4   816.8    0.00       0    81.0
 243    0:00   68.9    17    3.6   116      5.4   816.8    0.00       0    80.9
 243    0:10   68.5    17    2.9   143      4.9   816.9    0.00       0    80.7
 243    0:20   68.8    16    2.8   127      5.6   816.9    0.00       0    80.5
 243    0:30   68.5    17    1.3    66      2.6   816.9    0.00       0    80.4
 243    0:40   67.1    17    2.3   113      4.3   816.9    0.00       0    80.2
 243    0:50   66.7    17    2.9   131      4.4   816.9    0.00       0    80.1
 243    1:00   65.4    18    1.8    76      3.3   816.8    0.00       0    80.0
 243    1:10   66.0    18    2.6   117      4.4   816.8    0.00       0    79.8
 243    1:20   65.0    18    2.1   115      4.1   816.9    0.00       0    79.7
 243    1:30   65.1    19    1.8   121      3.4   816.9    0.00       0    79.5
 243    1:40   65.1    19    2.3   114      3.4   816.8    0.00       0    79.4
 243    1:50   66.1    18    1.6    92      3.2   816.8    0.00       0    79.2
 243    2:00   65.0    20    3.2   122      4.2   816.8    0.00       0    79.1
 243    2:10   64.0    20    2.7   109      3.7   816.8    0.00       0    78.9
 243    2:20   63.6    21    2.1   122      2.9   816.8    0.00       0    78.8
 243    2:30   63.6    21    1.8   137      3.4   816.7    0.00       0    78.6
 243    2:40   62.8    21    2.4   134      3.5   816.7    0.00       0    78.5
 243    2:50   62.2    22    2.7   121      4.2   816.6    0.00       0    78.4
 243    3:00   62.6    22    2.9   102      4.1   816.6    0.00       0    78.2
 243    3:10   62.7    22    2.6   131      3.6   816.5    0.00       0    78.1
 243    3:20   62.6    22    2.5   119      3.6   816.4    0.00       0    78.0
 243    3:30   62.5    21    2.4   118      3.3   816.5    0.00       0    77.8
 243    3:40   63.0    21    2.2   108      3.2   816.4    0.00       0    77.7
 243    3:50   63.1    21    2.1    99      3.0   816.4    0.00       0    77.6
 243    4:00   63.0    21    2.9   114      4.1   816.4    0.00       0    77.4
 243    4:10   64.5    20    4.4   145      6.1   816.5    0.00       0    77.3
 243    4:20   65.5    19    4.4   145      5.7   816.4    0.00       0    77.2
 243    4:30   65.3    20    5.0   154      6.4   816.5    0.00       0    77.0
 243    4:40   66.0    19    5.1   158      7.4   816.5    0.00       0    76.9
 243    4:50   65.7    19    2.0   150      6.3   816.5    0.00       0    76.8
 243    5:00   66.3    19    5.3   150      8.3   816.6    0.00       0    76.7
 243    5:10   66.4    18    4.5   160      6.4   816.6    0.00       0    76.6
 243    5:20   66.1    19    4.6   157      6.1   816.7    0.00       4    76.5
 243    5:30   66.2    19    4.8   165      6.9   816.7    0.00       9    76.4
 243    5:40   67.1    18    4.3   137      7.1   816.8    0.00      21    76.2
 243    5:50   68.3    18    4.1   164      6.4   816.8    0.00      34    76.1
 243    6:00   68.1    18    4.6   164      6.4   816.8    0.00      42    76.0
 243    6:10   68.2    18    4.1   154      5.9   816.9    0.00      68    75.9
 243    6:20   68.8    18    4.0   145      6.6   816.9    0.00      85    75.8
 243    6:30   70.0    17    4.1   140      6.7   816.9    0.00     137    75.8
 243    6:40   70.8    17    4.0   143      6.7   817.0    0.00     127    75.8
 243    6:50   71.1    16    5.3   158      7.5   817.0    0.00     211    75.7
 243    7:00   72.4    16    5.3   136      7.8   817.0    0.00     338    75.7
 243    7:10   73.7    15    4.4    97      8.0   817.0    0.00     346    75.7
 243    7:20   74.4    14    5.2    89      8.7   817.1    0.00     377    75.8
 243    7:30   74.4    14    5.0    94      8.0   817.0    0.00     421    75.8
 243    7:40   74.9    14    4.2    93      8.3   817.0    0.00     432    75.8
 243    7:50   75.9    14    3.8   109      7.4   817.0    0.00     428    76.0
 243    8:00   76.9    14    5.1   103     10.2   817.1    0.00     522    76.2
 243    8:10   76.9    14    5.5    97      9.9   817.1    0.00     484    76.4
 243    8:20   76.1    14    5.3    92      8.8   817.1    0.00     335    76.5
 243    8:30   76.8    14    5.0    78      9.1   817.1    0.00     572    76.7
 243    8:40   77.7    13    4.4    79      8.7   817.0    0.00     559    77.0
 243    8:50   78.2    13    5.1    86     10.2   817.0    0.00     511    77.2
 243    9:00   78.4    13    5.5    79      8.8   817.1    0.00     697    77.5
 243    9:10   79.2    13    5.9    85     10.9   817.0    0.00     741    77.7
 243    9:20   79.6    13    5.1    87      8.7   817.1    0.00     753    78.0
 243    9:30   80.2    13    5.7   104      9.9   817.1    0.00     736    78.3
 243    9:40   80.8    12    5.6   107     10.9   817.0    0.00     824    78.6
 243    9:50   81.6    12    6.8   106     13.4   817.0    0.00     852    78.9
 243   10:00   82.4    12    7.0   122     12.5   816.9    0.00     829    79.2
 243   10:10   83.4    12    6.9   137     14.7   816.9    0.00     930    79.5
 243   10:20   83.1    12    7.4   128     14.9   816.8    0.00     540    79.8
 243   10:30   82.1    12    7.8   151     13.8   816.7    0.00     488    80.2
 243   10:40   83.2    12    9.8   182     19.7   816.6    0.00     965    80.6
 243   10:50   83.6    12    8.2   120     16.1   816.5    0.00     972    80.9
 243   11:00   84.7    12    9.8   155     20.9   816.4    0.00     890    81.3
 243   11:10   83.3    12   10.9   162     33.8   816.3    0.00     698    81.6
 243   11:20   83.9    12    9.0   173     17.5   816.3    0.00     722    82.0
 243   11:30   83.0    12   11.2   179     20.5   816.2    0.00     475    82.3
 243   11:40   83.1    12   10.0   179     17.1   816.1    0.00     758    82.7
 243   11:50   84.1    11   11.2   175     22.6   816.0    0.00     747    83.0
 243   12:00   83.6    11    7.3   188     19.0   815.9    0.00     961    83.3
 243   12:10   86.0    11   10.6   149     24.0   815.7    0.00     990    83.6
 243   12:20   85.8    11   10.1   147     23.5   815.6    0.00     866    83.8
 243   12:30   86.6    11   11.6   153     20.4   815.5    0.00     996    84.1
 243   12:40   85.4    11   11.1   134     20.5   815.4    0.00     660    84.4
 243   12:50   85.5    11   14.7   147     23.9   815.2    0.00     968    84.7
 243   13:00   85.4    11   11.9   158     24.3   815.2    0.00     889    85.1
 243   13:10   85.5    11    9.8   145     20.4   815.1    0.00     859    85.4
 243   13:20   85.1    11   11.8   156     24.3   814.9    0.00     629    85.7
 243   13:30   86.0    11   13.9   148     23.7   814.8    0.00     888    85.9
 243   13:40   85.9    11    8.7   149     18.5   814.8    0.00     866    86.2
 243   13:50   86.2    11   10.3   176     22.4   814.6    0.00     855    86.5
 243   14:00   85.9    11   10.5   172     22.1   814.5    0.00     710    86.7
 243   14:10   86.5    11   10.6   146     20.7   814.3    0.00     812    86.9
 243   14:20   87.0    10    9.2   147     21.3   814.2    0.00     819    87.2
 243   14:30   86.9    10   11.1   167     19.4   814.2    0.00     811    87.4
 243   14:40   86.8    10   10.3   137     20.2   814.1    0.00     763    87.6
 243   14:50   86.3    10   11.7   143     21.3   814.1    0.00     685    87.8
 243   15:00   86.6    10   10.0   161     17.0   814.1    0.00     678    88.0
 243   15:10   86.2    10    8.2   167     19.9   814.1    0.00     647    88.2
 243   15:20   86.1    10   11.6   145     22.5   814.1    0.00     614    88.3
 243   15:30   86.4    10    9.0   163     19.3   814.0    0.00     581    88.4
 243   15:40   85.8    10    8.8   170     16.5   814.0    0.00     548    88.5
 243   15:50   85.8    10    9.9   162     20.3   814.0    0.00     515    88.6
 243   16:00   85.7    10    8.5   167     13.3   814.0    0.00     481    88.6
 243   16:10   85.9    10    9.1   153     19.2   813.9    0.00     450    88.6
 243   16:20   85.7    10    8.7   180     18.1   814.0    0.00     415    88.5
 243   16:30   85.2    10    8.2   166     17.3   813.9    0.00     377    88.4
 243   16:40   85.2    10    8.8   163     18.8   813.9    0.00     255    88.3
 243   16:50   84.4    10    6.6   170     14.0   813.9    0.00     285    88.2
 243   17:00   84.7    10    8.9   158     18.0   813.8    0.00     268    88.0
 243   17:10   84.3    10    8.7   150     15.1   813.7    0.00     227    87.9
 243   17:20   83.8    11    8.2   138     15.1   813.6    0.00     196    87.7
 243   17:30   83.4    11    7.7   154     13.2   813.5    0.00      78    87.5
 243   17:40   82.6    11    7.5   173     12.8   813.5    0.00      96    87.3
 243   17:50   82.4    11    8.4   151     14.6   813.5    0.00      86    87.1
 243   18:00   81.9    11    7.5   144     12.9   813.5    0.00      47    86.9
 243   18:10   81.2    12    7.9   138     13.4   813.5    0.00      19    86.7
 243   18:20   80.4    12    7.1   139     13.2   813.5    0.00       8    86.5
 243   18:30   79.4    12    5.1   143      8.3   813.6    0.00       4    86.3
 243   18:40   78.8    12    5.7   139     10.5   813.6    0.00       0    86.1

Return to Tonopah, Nevada graphs page.


Western Regional Climate Center,wrcc@dri.edu